createdAt,value
2019-05-17T00:01:52.050Z,70.25
2019-05-17T00:04:22.071Z,70.07
2019-05-17T00:06:52.438Z,69.97
2019-05-17T00:09:22.457Z,70.27
2019-05-17T00:11:52.447Z,70.08
2019-05-17T00:14:22.498Z,69.83
2019-05-17T00:16:52.827Z,69.83
2019-05-17T00:19:23.036Z,70.29
2019-05-17T00:21:52.990Z,70.62
2019-05-17T00:24:22.975Z,70.62
2019-05-17T00:26:53.086Z,70.34
2019-05-17T00:29:23.422Z,70.59
2019-05-17T00:31:53.441Z,70.81
2019-05-17T00:34:23.427Z,70.81
2019-05-17T00:36:53.514Z,70.38
2019-05-17T00:39:23.860Z,70.38
2019-05-17T00:41:53.878Z,70.29
2019-05-17T00:44:23.898Z,70.38
2019-05-17T00:46:54.222Z,70.38
2019-05-17T00:49:26.328Z,70.43
2019-05-17T00:51:56.768Z,70.41
2019-05-17T00:54:27.057Z,70.41
2019-05-17T00:56:57.070Z,70.73
2019-05-17T00:59:27.059Z,70.21
2019-05-17T01:01:57.082Z,70.37
2019-05-17T01:04:27.621Z,70.37
2019-05-17T01:06:57.938Z,70.34
2019-05-17T01:09:28.334Z,70.31
2019-05-17T01:11:58.439Z,70.53
2019-05-17T01:14:28.536Z,70.55
2019-05-17T01:16:58.536Z,70.84
2019-05-17T01:19:28.800Z,70.84
2019-05-17T01:21:59.351Z,70.66
2019-05-17T01:24:29.367Z,70.60
2019-05-17T01:26:59.209Z,70.07
2019-05-17T01:29:29.462Z,70.29
2019-05-17T01:31:59.772Z,70.41
2019-05-17T01:34:29.870Z,70.41
2019-05-17T01:37:00.083Z,70.65
2019-05-17T01:39:33.392Z,70.51
2019-05-17T01:42:02.606Z,70.74
2019-05-17T01:44:32.855Z,70.63
2019-05-17T01:47:03.144Z,70.45
2019-05-17T01:49:33.530Z,70.39
2019-05-17T01:52:03.864Z,70.39
2019-05-17T01:54:36.145Z,70.48
2019-05-17T01:57:07.303Z,70.13
2019-05-17T01:59:37.669Z,70.41
2019-05-17T02:02:13.571Z,70.42
2019-05-17T02:04:43.858Z,70.48
2019-05-17T02:07:14.180Z,71.06
2019-05-17T02:09:44.162Z,71.09
2019-05-17T02:12:14.491Z,71.09
2019-05-17T02:14:46.775Z,70.89
2019-05-17T02:17:17.398Z,70.89
2019-05-17T02:19:47.789Z,70.83
2019-05-17T02:22:18.116Z,70.83
2019-05-17T02:24:48.326Z,71.38
2019-05-17T02:27:21.419Z,71.36
2019-05-17T02:29:51.978Z,71.63
2019-05-17T02:32:23.636Z,72.51
2019-05-17T02:34:53.676Z,72.51
2019-05-17T02:37:24.022Z,71.90
2019-05-17T02:40:03.197Z,71.90
2019-05-17T02:42:25.982Z,71.36
2019-05-17T02:44:56.001Z,71.55
2019-05-17T02:47:26.286Z,71.31
2019-05-17T02:49:56.539Z,71.32
2019-05-17T02:52:26.827Z,71.32
2019-05-17T02:54:57.156Z,71.27
2019-05-17T02:57:27.452Z,71.15
2019-05-17T02:59:57.775Z,71.03
2019-05-17T03:02:28.323Z,71.03
2019-05-17T03:04:58.868Z,70.83
2019-05-17T03:07:32.622Z,71.05
2019-05-17T03:10:13.589Z,71.24
2019-05-17T03:12:34.221Z,71.24
2019-05-17T03:15:05.048Z,71.46
2019-05-17T03:17:35.338Z,71.51
2019-05-17T03:20:12.502Z,71.47
2019-05-17T03:22:44.106Z,71.17
2019-05-17T03:25:14.435Z,70.89
2019-05-17T03:27:44.946Z,70.89
2019-05-17T03:30:18.286Z,71.08
2019-05-17T03:32:49.071Z,71.19
2019-05-17T03:35:19.455Z,71.06
2019-05-17T03:37:52.884Z,71.06
2019-05-17T03:40:36.349Z,71.24
2019-05-17T03:42:54.031Z,71.24
2019-05-17T03:45:24.484Z,72.35
2019-05-17T03:47:54.572Z,72.09
2019-05-17T03:50:24.903Z,71.89
2019-05-17T03:52:55.186Z,72.38
2019-05-17T03:55:25.516Z,72.38
2019-05-17T03:57:55.809Z,72.09
2019-05-17T04:00:26.133Z,72.09
2019-05-17T04:02:56.416Z,72.07
2019-05-17T04:05:26.736Z,72.19
2019-05-17T04:07:57.035Z,72.55
2019-05-17T04:10:27.350Z,72.88
2019-05-17T04:12:57.638Z,73.33
2019-05-17T04:15:27.593Z,74.32
2019-05-17T04:17:57.994Z,74.32
2019-05-17T04:20:28.316Z,74.88
2019-05-17T04:23:03.750Z,74.88
2019-05-17T04:25:33.411Z,74.56
2019-05-17T04:28:04.393Z,74.87
2019-05-17T04:30:34.422Z,74.87
2019-05-17T04:33:04.827Z,74.74
2019-05-17T04:35:35.189Z,74.54
2019-05-17T04:38:05.510Z,74.61
2019-05-17T04:40:35.530Z,74.94
2019-05-17T04:43:05.815Z,74.58
2019-05-17T04:45:35.838Z,74.91
2019-05-17T04:48:05.893Z,74.64
2019-05-17T04:50:36.268Z,74.30
2019-05-17T04:53:06.556Z,74.52
2019-05-17T04:55:36.578Z,74.50
2019-05-17T04:58:06.572Z,74.50
2019-05-17T05:00:36.579Z,74.55
2019-05-17T05:03:07.842Z,74.27
2019-05-17T05:05:37.863Z,74.27
2019-05-17T05:08:07.951Z,74.09
2019-05-17T05:10:38.772Z,73.73
2019-05-17T05:13:09.252Z,73.79
2019-05-17T05:15:44.160Z,73.85
2019-05-17T05:18:14.066Z,73.85
2019-05-17T05:20:44.402Z,74.07
2019-05-17T05:23:14.434Z,73.65
2019-05-17T05:25:44.371Z,73.37
2019-05-17T05:28:14.383Z,73.47
2019-05-17T05:30:45.085Z,73.47
2019-05-17T05:33:15.029Z,73.32
2019-05-17T05:35:45.018Z,73.48
2019-05-17T05:38:15.043Z,73.48
2019-05-17T05:40:44.953Z,72.49
2019-05-17T05:43:15.584Z,72.28
2019-05-17T05:45:46.935Z,72.28
2019-05-17T05:48:16.958Z,72.14
2019-05-17T05:50:46.943Z,71.92
2019-05-17T05:53:16.971Z,71.61
2019-05-17T05:55:47.089Z,71.28
2019-05-17T05:58:17.146Z,71.07
2019-05-17T06:00:47.150Z,70.72
2019-05-17T06:03:17.140Z,70.46
2019-05-17T06:05:47.196Z,70.46
2019-05-17T06:08:17.244Z,70.17
2019-05-17T06:10:47.234Z,70.18
2019-05-17T06:13:17.261Z,70.10
2019-05-17T06:15:47.255Z,70.04
2019-05-17T06:18:17.287Z,70.29
2019-05-17T06:20:47.275Z,70.45
2019-05-17T06:23:19.598Z,70.54
2019-05-17T06:25:52.034Z,70.41
2019-05-17T06:28:22.295Z,70.23
2019-05-17T06:30:52.675Z,70.07
2019-05-17T06:33:30.544Z,69.73
2019-05-17T06:35:54.419Z,69.42
2019-05-17T06:38:24.411Z,69.14
2019-05-17T06:40:54.541Z,68.88
2019-05-17T06:43:24.531Z,68.50
2019-05-17T06:45:54.492Z,67.97
2019-05-17T06:48:32.491Z,67.08
2019-05-17T06:51:03.932Z,66.88
2019-05-17T06:53:34.887Z,66.31
2019-05-17T06:56:04.917Z,65.79
2019-05-17T06:58:34.831Z,65.50
2019-05-17T07:01:04.856Z,63.90
2019-05-17T07:03:34.847Z,64.12
2019-05-17T07:06:06.614Z,62.77
2019-05-17T07:08:40.097Z,63.11
2019-05-17T07:11:09.878Z,62.98
2019-05-17T07:13:40.027Z,61.62
2019-05-17T07:16:10.338Z,61.86
2019-05-17T07:18:40.530Z,61.44
2019-05-17T07:21:10.554Z,60.68
2019-05-17T07:23:41.253Z,58.93
2019-05-17T07:26:12.039Z,58.01
2019-05-17T07:28:42.310Z,58.30
2019-05-17T07:31:12.372Z,58.22
2019-05-17T07:33:42.424Z,56.97
2019-05-17T07:36:12.298Z,57.23
2019-05-17T07:38:42.321Z,55.61
2019-05-17T07:41:12.350Z,55.62
2019-05-17T07:43:42.356Z,55.11
2019-05-17T07:46:12.312Z,54.91
2019-05-17T07:48:42.300Z,53.84
2019-05-17T07:51:12.327Z,55.20
2019-05-17T07:53:42.246Z,54.08
2019-05-17T07:56:12.344Z,52.12
2019-05-17T07:58:42.410Z,53.04
2019-05-17T08:01:12.427Z,53.22
2019-05-17T08:03:43.383Z,52.12
2019-05-17T08:06:13.413Z,52.40
2019-05-17T08:08:43.499Z,52.27
2019-05-17T08:11:21.194Z,51.67
2019-05-17T08:13:53.078Z,50.48
2019-05-17T08:16:22.990Z,50.93
2019-05-17T08:18:53.094Z,49.28
2019-05-17T08:21:23.082Z,48.73
2019-05-17T08:23:53.104Z,49.24
2019-05-17T08:26:24.354Z,48.84
2019-05-17T08:28:54.299Z,49.01
2019-05-17T08:31:24.279Z,47.26
2019-05-17T08:34:03.897Z,47.58
2019-05-17T08:36:33.889Z,48.54
2019-05-17T08:39:06.110Z,48.49
2019-05-17T08:41:36.218Z,48.23
2019-05-17T08:44:06.270Z,47.43
2019-05-17T08:46:36.431Z,47.56
2019-05-17T08:49:06.432Z,48.37
2019-05-17T08:51:36.449Z,47.62
2019-05-17T08:54:06.498Z,47.58
2019-05-17T08:56:36.516Z,47.63
2019-05-17T08:59:06.550Z,47.51
2019-05-17T09:01:38.455Z,46.59
2019-05-17T09:04:09.275Z,46.88
2019-05-17T09:06:39.814Z,47.11
2019-05-17T09:09:10.265Z,46.51
2019-05-17T09:11:40.275Z,46.11
2019-05-17T09:14:10.629Z,46.27
2019-05-17T09:16:41.557Z,46.22
2019-05-17T09:19:11.716Z,45.85
2019-05-17T09:21:42.028Z,45.06
2019-05-17T09:24:12.450Z,45.21
2019-05-17T09:26:42.502Z,45.31
2019-05-17T09:29:13.392Z,44.31
2019-05-17T09:31:43.405Z,44.95
2019-05-17T09:34:13.450Z,44.94
2019-05-17T09:36:44.303Z,44.16
2019-05-17T09:39:14.378Z,44.45
2019-05-17T09:41:44.457Z,43.82
2019-05-17T09:44:16.316Z,43.17
2019-05-17T09:46:46.851Z,43.92
2019-05-17T09:49:19.176Z,44.25
2019-05-17T09:51:49.671Z,43.67
2019-05-17T09:54:19.862Z,43.60
2019-05-17T09:56:49.844Z,43.94
2019-05-17T09:59:20.362Z,43.43
2019-05-17T10:01:51.648Z,43.11
2019-05-17T10:04:21.953Z,42.56
2019-05-17T10:06:52.554Z,41.35
2019-05-17T10:09:24.896Z,42.62
2019-05-17T10:11:55.015Z,42.56
2019-05-17T10:14:29.176Z,42.21
2019-05-17T10:17:00.348Z,41.85
2019-05-17T10:19:31.259Z,41.94
2019-05-17T10:22:12.741Z,41.72
2019-05-17T10:24:43.702Z,40.16
2019-05-17T10:27:14.821Z,40.77
2019-05-17T10:29:45.723Z,38.94
2019-05-17T10:32:20.309Z,39.77
2019-05-17T10:34:51.383Z,39.77
2019-05-17T10:37:23.668Z,39.40
2019-05-17T10:39:55.936Z,39.50
2019-05-17T10:42:26.108Z,39.30
2019-05-17T10:44:56.086Z,39.23
2019-05-17T10:47:26.094Z,38.23
2019-05-17T10:49:56.083Z,37.18
2019-05-17T10:52:26.095Z,35.90
2019-05-17T10:54:56.072Z,36.66
2019-05-17T10:57:26.099Z,37.12
2019-05-17T10:59:56.069Z,38.05
2019-05-17T11:02:26.154Z,36.79
2019-05-17T11:04:56.099Z,37.24
2019-05-17T11:07:26.340Z,37.74
2019-05-17T11:09:56.419Z,35.39
2019-05-17T11:12:26.317Z,35.54
2019-05-17T11:15:10.350Z,34.92
2019-05-17T11:17:28.506Z,34.31
2019-05-17T11:19:58.540Z,33.92
2019-05-17T11:22:28.775Z,33.79
2019-05-17T11:24:59.034Z,33.43
2019-05-17T11:27:29.143Z,35.69
2019-05-17T11:29:59.155Z,36.33
2019-05-17T11:32:28.984Z,34.57
2019-05-17T11:34:58.948Z,35.49
2019-05-17T11:37:28.908Z,35.03
2019-05-17T11:39:58.922Z,33.14
2019-05-17T11:42:29.000Z,32.86
2019-05-17T11:44:58.977Z,33.33
2019-05-17T11:47:29.080Z,33.29
2019-05-17T11:49:59.190Z,34.24
2019-05-17T11:52:29.198Z,34.91
2019-05-17T11:54:59.196Z,35.13
2019-05-17T11:57:29.205Z,34.24
2019-05-17T11:59:59.656Z,34.75
2019-05-17T12:02:34.472Z,33.77
2019-05-17T12:05:05.974Z,33.83
2019-05-17T12:07:36.013Z,33.28
2019-05-17T12:10:08.029Z,33.04
2019-05-17T12:12:38.038Z,32.12
2019-05-17T12:15:08.018Z,32.33
2019-05-17T12:17:39.463Z,32.24
2019-05-17T12:20:12.996Z,32.23
2019-05-17T12:22:43.499Z,33.69
2019-05-17T12:25:14.565Z,34.68
2019-05-17T12:27:44.569Z,35.15
2019-05-17T12:30:15.041Z,33.89
2019-05-17T12:32:45.074Z,33.42
2019-05-17T12:35:15.047Z,33.10
2019-05-17T12:37:44.992Z,32.68
2019-05-17T12:40:15.123Z,32.07
2019-05-17T12:42:45.229Z,33.44
2019-05-17T12:45:15.241Z,33.26
2019-05-17T12:47:45.150Z,32.58
2019-05-17T12:50:15.654Z,32.94
2019-05-17T12:52:45.627Z,33.02
2019-05-17T12:55:15.822Z,32.38
2019-05-17T12:57:46.587Z,33.04
2019-05-17T13:00:17.751Z,33.61
2019-05-17T13:02:47.767Z,34.55
2019-05-17T13:05:17.736Z,34.84
2019-05-17T13:07:47.826Z,34.61
2019-05-17T13:10:18.607Z,35.89
2019-05-17T13:12:48.689Z,35.44
2019-05-17T13:15:19.139Z,35.55
2019-05-17T13:17:49.145Z,35.51
2019-05-17T13:20:21.569Z,33.95
2019-05-17T13:22:51.592Z,33.62
2019-05-17T13:25:21.663Z,33.28
2019-05-17T13:27:51.750Z,34.43
2019-05-17T13:30:21.832Z,33.35
2019-05-17T13:32:54.777Z,32.69
2019-05-17T13:35:24.860Z,32.92
2019-05-17T13:37:54.936Z,34.19
2019-05-17T13:40:25.042Z,33.25
2019-05-17T13:42:55.138Z,33.40
2019-05-17T13:45:25.194Z,34.04
2019-05-17T13:47:55.275Z,34.83
2019-05-17T13:50:27.240Z,35.01
2019-05-17T13:52:57.442Z,34.50
2019-05-17T13:55:30.266Z,34.71
2019-05-17T13:58:00.726Z,35.30
2019-05-17T14:00:31.349Z,35.16
2019-05-17T14:03:01.662Z,35.94
2019-05-17T14:05:33.986Z,35.83
2019-05-17T14:08:04.931Z,34.53
2019-05-17T14:10:34.985Z,33.39
2019-05-17T14:13:05.270Z,32.41
2019-05-17T14:15:35.322Z,34.50
2019-05-17T14:18:05.486Z,34.60
2019-05-17T14:20:35.949Z,35.64
2019-05-17T14:23:05.921Z,36.22
2019-05-17T14:25:35.972Z,36.58
2019-05-17T14:31:04.208Z,36.32
2019-05-17T14:33:35.669Z,35.23
2019-05-17T14:36:06.275Z,34.58
2019-05-17T14:38:36.645Z,34.63
2019-05-17T14:41:09.219Z,35.29
2019-05-17T14:43:39.634Z,35.35
2019-05-17T14:46:09.927Z,35.58
2019-05-17T14:48:41.112Z,35.68
2019-05-17T14:51:13.125Z,35.52
2019-05-17T14:53:43.921Z,36.01
2019-05-17T14:56:16.762Z,35.88
2019-05-17T14:58:47.106Z,36.33
2019-05-17T15:01:18.948Z,35.80
2019-05-17T15:03:48.982Z,36.04
2019-05-17T15:06:20.630Z,35.60
2019-05-17T15:08:51.690Z,35.24
2019-05-17T15:11:21.770Z,36.32
2019-05-17T15:13:51.805Z,36.08
2019-05-17T15:16:21.893Z,35.82
2019-05-17T15:18:52.341Z,36.23
2019-05-17T15:21:23.252Z,36.35
2019-05-17T15:23:53.709Z,36.67
2019-05-17T15:26:23.899Z,36.86
2019-05-17T15:28:54.217Z,37.16
2019-05-17T15:31:25.764Z,37.49
2019-05-17T15:33:56.622Z,37.61
2019-05-17T15:36:26.721Z,36.93
2019-05-17T15:38:57.521Z,37.15
2019-05-17T15:41:27.647Z,37.31
2019-05-17T15:43:58.211Z,37.18
2019-05-17T15:46:29.381Z,37.22
2019-05-17T15:49:01.487Z,37.54
2019-05-17T15:51:32.004Z,36.90
2019-05-17T15:54:02.015Z,37.09
2019-05-17T15:56:32.012Z,37.56
2019-05-17T15:59:03.455Z,37.24
2019-05-17T16:01:33.582Z,36.84
2019-05-17T16:04:03.536Z,36.20
2019-05-17T16:06:33.741Z,36.35
2019-05-17T16:09:06.350Z,36.44
2019-05-17T16:11:36.845Z,35.38
2019-05-17T16:14:07.537Z,35.78
2019-05-17T16:16:38.837Z,35.63
2019-05-17T16:19:09.001Z,35.47
2019-05-17T16:21:40.080Z,35.92
2019-05-17T16:24:11.592Z,36.15
2019-05-17T16:26:42.091Z,35.25
2019-05-17T16:29:16.509Z,35.31
2019-05-17T16:31:46.893Z,35.04
2019-05-17T16:34:16.926Z,34.90
2019-05-17T16:36:46.940Z,34.23
2019-05-17T16:39:16.853Z,33.97
2019-05-17T16:41:46.961Z,34.17
2019-05-17T16:44:16.977Z,33.99
2019-05-17T16:46:46.993Z,35.08
2019-05-17T16:49:16.968Z,34.08
2019-05-17T16:51:47.039Z,33.65
2019-05-17T16:54:17.010Z,34.42
2019-05-17T16:56:47.117Z,34.48
2019-05-17T16:59:17.255Z,34.80
2019-05-17T17:01:47.394Z,35.04
2019-05-17T17:04:17.461Z,34.83
2019-05-17T17:06:47.432Z,34.62
2019-05-17T17:09:17.508Z,35.27
2019-05-17T17:11:47.515Z,35.30
2019-05-17T17:14:18.170Z,35.47
2019-05-17T17:16:48.362Z,35.69
2019-05-17T17:19:18.402Z,36.05
2019-05-17T17:21:48.401Z,36.14
2019-05-17T17:24:18.510Z,36.38
2019-05-17T17:26:48.518Z,36.79
2019-05-17T17:29:18.553Z,36.37
2019-05-17T17:31:48.636Z,36.64
2019-05-17T17:34:18.598Z,36.71
2019-05-17T17:36:48.667Z,36.57
2019-05-17T17:39:18.569Z,36.66
2019-05-17T17:41:48.692Z,36.80
2019-05-17T17:44:18.700Z,37.17
2019-05-17T17:46:48.625Z,37.48
2019-05-17T17:49:18.674Z,37.93
2019-05-17T17:51:48.685Z,37.89
2019-05-17T17:54:18.675Z,38.18
2019-05-17T17:56:48.641Z,38.27
2019-05-17T17:59:19.413Z,38.33
2019-05-17T18:01:49.359Z,38.59
2019-05-17T18:04:19.969Z,38.96
2019-05-17T18:06:49.932Z,39.08
2019-05-17T18:09:19.962Z,39.43
2019-05-17T18:11:49.937Z,39.48
2019-05-17T18:14:19.934Z,39.78
2019-05-17T18:16:49.903Z,40.02
2019-05-17T18:19:19.918Z,40.11
2019-05-17T18:21:49.891Z,40.21
2019-05-17T18:24:19.908Z,40.43
2019-05-17T18:26:49.898Z,40.58
2019-05-17T18:29:19.800Z,40.84
2019-05-17T18:31:49.807Z,41.20
2019-05-17T18:34:19.737Z,41.28
2019-05-17T18:36:49.710Z,41.23
2019-05-17T18:39:19.715Z,41.52
2019-05-17T18:41:49.757Z,41.61
2019-05-17T18:44:27.181Z,41.87
2019-05-17T18:46:51.454Z,42.06
2019-05-17T18:49:21.389Z,42.23
2019-05-17T18:51:51.368Z,42.41
2019-05-17T18:54:21.669Z,42.54
2019-05-17T18:56:51.673Z,42.93
2019-05-17T18:59:21.699Z,43.20
2019-05-17T19:01:51.707Z,43.45
2019-05-17T19:04:21.603Z,43.88
2019-05-17T19:06:51.677Z,44.37
2019-05-17T19:09:21.678Z,44.59
2019-05-17T19:11:51.686Z,45.02
2019-05-17T19:14:21.519Z,45.70
2019-05-17T19:16:51.522Z,46.19
2019-05-17T19:19:21.494Z,46.57
2019-05-17T19:21:51.525Z,46.83
2019-05-17T19:24:21.494Z,47.17
2019-05-17T19:26:51.509Z,47.38
2019-05-17T19:29:21.538Z,47.31
2019-05-17T19:31:51.513Z,47.57
2019-05-17T19:34:21.531Z,48.01
2019-05-17T19:36:51.539Z,48.14
2019-05-17T19:39:21.628Z,48.63
2019-05-17T19:41:51.629Z,48.57
2019-05-17T19:44:21.706Z,49.35
2019-05-17T19:46:51.812Z,48.99
2019-05-17T19:49:21.865Z,49.11
2019-05-17T19:51:51.866Z,49.38
2019-05-17T19:54:21.842Z,49.42
2019-05-17T19:56:51.926Z,49.73
2019-05-17T19:59:21.972Z,49.70
2019-05-17T20:01:52.045Z,49.65
2019-05-17T20:04:22.087Z,49.71
2019-05-17T20:06:52.198Z,49.91
2019-05-17T20:09:22.176Z,50.47
2019-05-17T20:11:52.190Z,50.55
2019-05-17T20:14:22.169Z,51.18
2019-05-17T20:16:52.219Z,51.19
2019-05-17T20:19:22.215Z,51.35
2019-05-17T20:21:52.302Z,52.00
2019-05-17T20:24:22.279Z,51.95
2019-05-17T20:26:52.293Z,51.88
2019-05-17T20:29:22.354Z,52.11
2019-05-17T20:31:52.386Z,52.49
2019-05-17T20:34:22.501Z,52.45
2019-05-17T20:36:52.609Z,52.85
2019-05-17T20:39:22.654Z,53.13
2019-05-17T20:41:52.659Z,53.38
2019-05-17T20:44:22.599Z,53.53
2019-05-17T20:46:52.610Z,53.67
2019-05-17T20:49:22.702Z,53.68
2019-05-17T20:51:52.602Z,53.86
2019-05-17T20:54:22.549Z,53.99
2019-05-17T20:56:52.593Z,54.19
2019-05-17T20:59:22.566Z,54.55
2019-05-17T21:01:52.607Z,54.86
2019-05-17T21:04:22.537Z,55.26
2019-05-17T21:06:52.561Z,55.55
2019-05-17T21:09:22.618Z,55.85
2019-05-17T21:11:52.628Z,56.50
2019-05-17T21:14:22.606Z,56.66
2019-05-17T21:16:52.605Z,57.31
2019-05-17T21:19:22.577Z,57.44
2019-05-17T21:21:53.854Z,58.09
2019-05-17T21:24:23.831Z,58.92
2019-05-17T21:26:53.769Z,59.44
2019-05-17T21:29:23.813Z,59.51
2019-05-17T21:31:53.818Z,59.89
2019-05-17T21:34:23.794Z,60.25
2019-05-17T21:36:53.808Z,60.68
2019-05-17T21:39:23.777Z,61.05
2019-05-17T21:41:53.794Z,61.22
2019-05-17T21:44:23.776Z,61.68
2019-05-17T21:47:04.451Z,62.43
2019-05-17T21:49:25.439Z,62.81
2019-05-17T21:51:55.447Z,63.14
2019-05-17T21:54:25.415Z,63.53
2019-05-17T21:56:55.417Z,63.54
2019-05-17T21:59:25.390Z,63.36
2019-05-17T22:01:55.781Z,62.92
2019-05-17T22:04:27.057Z,63.28
2019-05-17T22:06:57.385Z,63.44
2019-05-17T22:09:27.416Z,63.45
2019-05-17T22:12:02.776Z,63.77
2019-05-17T22:14:34.041Z,63.64
2019-05-17T22:17:04.073Z,63.59
2019-05-17T22:19:33.957Z,63.70
2019-05-17T22:22:03.973Z,63.37
2019-05-17T22:24:33.945Z,63.65
2019-05-17T22:27:04.025Z,63.51
2019-05-17T22:29:33.997Z,63.68
2019-05-17T22:32:04.025Z,63.77
2019-05-17T22:34:33.989Z,63.64
2019-05-17T22:37:04.065Z,64.18
2019-05-17T22:39:33.967Z,64.58
2019-05-17T22:42:04.046Z,64.66
2019-05-17T22:44:34.021Z,64.68
2019-05-17T22:47:04.205Z,65.00
2019-05-17T22:49:34.175Z,65.01
2019-05-17T22:52:04.189Z,65.37
2019-05-17T22:54:34.161Z,65.10
2019-05-17T22:57:04.207Z,65.00
2019-05-17T22:59:34.106Z,65.34
2019-05-17T23:02:04.134Z,65.19
2019-05-17T23:04:34.091Z,65.02
2019-05-17T23:07:04.102Z,65.20
2019-05-17T23:09:34.073Z,65.52
2019-05-17T23:12:04.083Z,65.84
2019-05-17T23:14:34.053Z,65.76
2019-05-17T23:17:04.058Z,66.00
2019-05-17T23:19:34.031Z,65.92
2019-05-17T23:22:03.976Z,66.12
2019-05-17T23:24:33.949Z,66.33
2019-05-17T23:27:03.993Z,66.37
2019-05-17T23:29:33.998Z,66.40
2019-05-17T23:32:04.052Z,66.51
2019-05-17T23:34:33.985Z,66.35
2019-05-17T23:37:03.957Z,66.50
2019-05-17T23:39:33.965Z,67.38
2019-05-17T23:42:04.005Z,67.35
2019-05-17T23:44:33.862Z,67.92
2019-05-17T23:47:07.198Z,67.81
2019-05-17T23:49:35.466Z,67.75
2019-05-17T23:52:05.468Z,67.66
2019-05-17T23:54:35.482Z,67.61
2019-05-17T23:57:05.513Z,67.73
2019-05-17T23:59:35.551Z,67.84
